x

Buoy M01 - Jordan Basin (44037) Wave Buoy

3:04am - Thu 29th Jan 2015 All times are EST. -5 hours from GMT.

  • Sig Wave height 6.6ft
  • Peak Period 6s
  • Wind
    25mph, 29mph gusts
  • Sea Temp 45°f
  • Air Temp 27°f
  • Sea Pressure 1022.1mb
  • Buoy M01 - Jordan Basin
  • Buoy M01 - Jordan Basin

More Historic Weather Station data

Upgrade to MSW Pro to gain access to the past 30 days of data for over 8000 Wavebouys and Weather Stations around the globe.

Join Pro

Comparision Forecast

View Surf forecast
   
Thu 01/29 3:04am 6.5ft 6s 25 29 mph 1022.1mb 45f 27f
2:04am 6.5ft 8s  -  mph - 45f -
Wed 01/28 7:04pm 9ft 11s 27 34 mph 1015.9mb 45f 26f
5:04pm 9ft 11s 27 31 mph 1013.5mb 45f 26f
11:04am 13ft 8s 25 31 mph 1008mb 45f 25f
10:04am 11.5ft 8s 36 45 mph 1006.6mb 45f 25f
8:04am 14ft 11s 31 40 mph - - 26f
5:04am 15.5ft 11s  -  mph - 45f -
3:04am 22.5ft 11s 43 54 mph - 45f 30f
2:04am  -   -  40 58 mph - 45f 30f
12:04am  -   -  36 49 mph - - 34f
Tue 01/27 11:04pm 27.5ft 11s 40 49 mph - 45f 36f
10:04pm  -   -  43 49 mph - - 35f
9:04pm 23ft 11s 40 51 mph - 45f 35f
8:04pm  -   -  40 51 mph - 45f 34f
7:04pm 32ft 11s 45 54 mph - 45f 34f
6:04pm 25.5ft 11s 45 54 mph - 45f 33f
5:04pm 30ft 11s 47 58 mph - 45f 33f
4:04pm 30ft 11s 47 58 mph - 45f 33f
3:04pm 30ft 11s 47 56 mph - 45f 33f
2:04pm  -   -  49 60 mph - 45f 32f
1:04pm 29ft 11s 51 65 mph - 45f 31f
11:04am 26ft 11s 49 60 mph - 45f 30f
8:04am 25.5ft 11s  -  mph - 45f -
4:04am 25.5ft 11s  -  mph - 44f -
3:04am 18.5ft 8s 43 51 mph - 44f 28f
2:04am 18ft 8s 40 51 mph 1007.1mb 44f 28f
12:04am  -   -  38 49 mph 1012.3mb - 29f
Mon 01/26 11:04pm 8ft 6s 34 40 mph 1014.6mb 44f 30f
10:04pm 7ft 5s 34 45 mph 1016.8mb 44f 29f
9:04pm 7.5ft 5s 29 36 mph 1018.7mb 44f 29f
8:04pm 8ft 11s 27 34 mph 1019.7mb 44f 28f
7:04pm 7ft 11s 25 31 mph 1020.8mb 44f 28f
6:04pm 6ft 11s 22 29 mph 1020.5mb 44f 27f
5:04pm 6ft 11s 20 29 mph 1020.2mb 44f 26f
4:04pm 3.5ft 4s 16 22 mph 1020.2mb 44f 25f
3:04pm 4.5ft 11s 16 20 mph 1020.5mb 44f 23f
2:04pm 5ft 11s 13 22 mph 1020.8mb 44f 22f
1:04pm 4.5ft 11s 16 22 mph 1019.8mb 44f 22f
11:04am 5ft 11s 11 18 mph 1022.4mb 44f 20f
10:04am 4ft 5s 13 18 mph 1022.2mb 44f 20f
9:04am 4.5ft 5s 13 18 mph 1022.1mb 44f 19f
7:04am 7ft 11s 20 27 mph 1019.7mb 44f 20f
6:04am 8ft 6s 22 27 mph 1018.9mb 44f 21f
5:04am 9ft 6s 25 29 mph 1017.6mb 44f 22f
4:04am  -   -  22 29 mph 1016.9mb - 22f
3:04am 7.5ft 6s 25 34 mph 1016.4mb 44f 23f
1:04am 8ft 6s  -  mph - 44f -
12:04am 9.5ft 6s  -  mph - 44f -
Sun 01/25 7:04pm 11ft 8s 38 45 mph 1007mb 44f 30f
2:04pm 10.5ft 8s  -  mph - 44f -
11:04am 8ft 6s 25 34 mph 996.2mb 44f 40f